sensor_id;sensor_type;location;lat;lon;timestamp;pressure;altitude;pressure_sealevel;temperature;humidity
37778;BME280;23615;51.506;7.678;2023-10-13T00:01:24;99727.28;;;17.53;100.00
37778;BME280;23615;51.506;7.678;2023-10-13T00:03:50;99729.44;;;17.51;100.00
37778;BME280;23615;51.506;7.678;2023-10-13T00:06:19;99732.66;;;17.48;100.00
37778;BME280;23615;51.506;7.678;2023-10-13T00:08:45;99720.56;;;17.46;100.00
37778;BME280;23615;51.506;7.678;2023-10-13T00:11:14;99716.78;;;17.47;100.00
37778;BME280;23615;51.506;7.678;2023-10-13T00:13:40;99719.50;;;17.42;100.00
37778;BME280;23615;51.506;7.678;2023-10-13T00:16:08;99719.75;;;17.40;100.00
37778;BME280;23615;51.506;7.678;2023-10-13T00:18:35;99720.59;;;17.36;100.00
37778;BME280;23615;51.506;7.678;2023-10-13T00:21:06;99711.94;;;17.44;100.00
37778;BME280;23615;51.506;7.678;2023-10-13T00:23:38;99709.50;;;17.42;100.00
37778;BME280;23615;51.506;7.678;2023-10-13T00:26:04;99700.84;;;17.55;100.00
37778;BME280;23615;51.506;7.678;2023-10-13T00:28:30;99700.28;;;17.53;100.00
37778;BME280;23615;51.506;7.678;2023-10-13T00:31:08;99694.06;;;17.58;100.00
37778;BME280;23615;51.506;7.678;2023-10-13T00:33:38;99685.69;;;17.59;100.00
37778;BME280;23615;51.506;7.678;2023-10-13T00:36:04;99690.56;;;17.63;100.00
37778;BME280;23615;51.506;7.678;2023-10-13T00:38:30;99690.56;;;17.57;100.00
37778;BME280;23615;51.506;7.678;2023-10-13T00:40:55;99694.59;;;17.60;100.00
37778;BME280;23615;51.506;7.678;2023-10-13T00:43:28;99692.75;;;17.55;100.00
37778;BME280;23615;51.506;7.678;2023-10-13T00:45:58;99691.13;;;17.49;100.00
37778;BME280;23615;51.506;7.678;2023-10-13T00:48:32;99685.94;;;17.68;100.00
37778;BME280;23615;51.506;7.678;2023-10-13T00:51:00;99687.88;;;17.63;100.00
37778;BME280;23615;51.506;7.678;2023-10-13T00:53:32;99685.47;;;17.56;100.00
37778;BME280;23615;51.506;7.678;2023-10-13T00:56:00;99669.53;;;17.54;100.00
37778;BME280;23615;51.506;7.678;2023-10-13T00:58:32;99671.63;;;17.68;100.00
37778;BME280;23615;51.506;7.678;2023-10-13T01:00:59;99663.53;;;17.73;100.00
37778;BME280;23615;51.506;7.678;2023-10-13T01:03:44;99667.06;;;17.68;100.00
37778;BME280;23615;51.506;7.678;2023-10-13T01:06:10;99664.69;;;17.56;100.00
37778;BME280;23615;51.506;7.678;2023-10-13T01:08:37;99676.22;;;17.67;100.00
37778;BME280;23615;51.506;7.678;2023-10-13T01:11:04;99666.28;;;17.63;100.00
37778;BME280;23615;51.506;7.678;2023-10-13T01:13:32;99659.75;;;17.74;100.00
37778;BME280;23615;51.506;7.678;2023-10-13T01:16:01;99663.56;;;17.57;100.00
37778;BME280;23615;51.506;7.678;2023-10-13T01:18:26;99650.63;;;17.59;100.00
37778;BME280;23615;51.506;7.678;2023-10-13T01:20:53;99647.91;;;17.70;100.00
37778;BME280;23615;51.506;7.678;2023-10-13T01:23:24;99650.09;;;17.63;100.00
37778;BME280;23615;51.506;7.678;2023-10-13T01:25:53;99646.59;;;17.57;100.00
37778;BME280;23615;51.506;7.678;2023-10-13T01:28:19;99643.91;;;17.62;100.00
37778;BME280;23615;51.506;7.678;2023-10-13T01:30:44;99641.94;;;17.73;100.00
37778;BME280;23615;51.506;7.678;2023-10-13T01:33:18;99650.38;;;17.66;100.00
37778;BME280;23615;51.506;7.678;2023-10-13T01:35:51;99646.25;;;17.74;100.00
37778;BME280;23615;51.506;7.678;2023-10-13T01:38:18;99637.31;;;17.78;100.00
37778;BME280;23615;51.506;7.678;2023-10-13T01:40:43;99642.53;;;17.65;100.00
37778;BME280;23615;51.506;7.678;2023-10-13T01:43:08;99635.25;;;17.65;100.00
37778;BME280;23615;51.506;7.678;2023-10-13T01:45:37;99628.81;;;17.56;100.00
37778;BME280;23615;51.506;7.678;2023-10-13T01:48:04;99617.22;;;17.55;100.00
37778;BME280;23615;51.506;7.678;2023-10-13T01:50:29;99612.31;;;17.57;100.00
37778;BME280;23615;51.506;7.678;2023-10-13T01:52:55;99603.19;;;17.53;100.00
37778;BME280;23615;51.506;7.678;2023-10-13T01:55:38;99611.53;;;17.62;100.00
37778;BME280;23615;51.506;7.678;2023-10-13T01:58:11;99612.91;;;17.49;100.00
37778;BME280;23615;51.506;7.678;2023-10-13T02:00:44;99615.25;;;17.71;100.00
37778;BME280;23615;51.506;7.678;2023-10-13T02:03:11;99608.28;;;17.65;100.00
37778;BME280;23615;51.506;7.678;2023-10-13T02:05:42;99606.53;;;17.79;100.00
37778;BME280;23615;51.506;7.678;2023-10-13T02:08:10;99603.91;;;17.74;100.00
37778;BME280;23615;51.506;7.678;2023-10-13T02:10:42;99599.84;;;17.72;100.00
37778;BME280;23615;51.506;7.678;2023-10-13T02:13:12;99597.97;;;17.72;100.00
37778;BME280;23615;51.506;7.678;2023-10-13T02:15:40;99591.47;;;17.73;100.00
37778;BME280;23615;51.506;7.678;2023-10-13T02:18:08;99594.47;;;17.72;100.00
37778;BME280;23615;51.506;7.678;2023-10-13T02:20:34;99595.25;;;17.72;100.00
37778;BME280;23615;51.506;7.678;2023-10-13T02:23:06;99589.09;;;17.67;100.00
37778;BME280;23615;51.506;7.678;2023-10-13T02:25:35;99585.75;;;17.80;100.00
37778;BME280;23615;51.506;7.678;2023-10-13T02:28:04;99575.84;;;17.70;100.00
37778;BME280;23615;51.506;7.678;2023-10-13T02:30:42;99581.22;;;17.75;100.00
37778;BME280;23615;51.506;7.678;2023-10-13T02:33:13;99568.03;;;17.69;100.00
37778;BME280;23615;51.506;7.678;2023-10-13T02:35:39;99567.53;;;17.62;100.00
37778;BME280;23615;51.506;7.678;2023-10-13T02:38:15;99570.78;;;17.64;100.00
37778;BME280;23615;51.506;7.678;2023-10-13T02:40:49;99554.59;;;17.58;100.00
37778;BME280;23615;51.506;7.678;2023-10-13T02:43:14;99556.25;;;17.49;100.00
37778;BME280;23615;51.506;7.678;2023-10-13T02:45:39;99549.78;;;17.50;100.00
37778;BME280;23615;51.506;7.678;2023-10-13T02:48:06;99550.03;;;17.54;100.00
37778;BME280;23615;51.506;7.678;2023-10-13T02:50:40;99548.16;;;17.54;100.00
37778;BME280;23615;51.506;7.678;2023-10-13T02:53:08;99550.59;;;17.51;100.00
37778;BME280;23615;51.506;7.678;2023-10-13T02:55:58;99540.00;;;17.59;100.00
37778;BME280;23615;51.506;7.678;2023-10-13T02:58:31;99547.88;;;17.56;100.00
37778;BME280;23615;51.506;7.678;2023-10-13T03:01:09;99548.63;;;17.62;100.00
37778;BME280;23615;51.506;7.678;2023-10-13T03:03:47;99536.25;;;17.66;100.00
37778;BME280;23615;51.506;7.678;2023-10-13T03:06:15;99537.81;;;17.67;100.00
37778;BME280;23615;51.506;7.678;2023-10-13T03:08:40;99535.09;;;17.72;100.00
37778;BME280;23615;51.506;7.678;2023-10-13T03:11:08;99536.19;;;17.71;100.00
37778;BME280;23615;51.506;7.678;2023-10-13T03:13:35;99534.03;;;17.68;100.00
37778;BME280;23615;51.506;7.678;2023-10-13T03:16:00;99529.72;;;17.67;100.00
37778;BME280;23615;51.506;7.678;2023-10-13T03:18:25;99534.34;;;17.66;100.00
37778;BME280;23615;51.506;7.678;2023-10-13T03:20:51;99520.84;;;17.61;100.00
37778;BME280;23615;51.506;7.678;2023-10-13T03:23:22;99517.34;;;17.61;100.00
37778;BME280;23615;51.506;7.678;2023-10-13T03:25:49;99504.13;;;17.59;100.00
37778;BME280;23615;51.506;7.678;2023-10-13T03:28:20;99502.25;;;17.65;100.00
37778;BME280;23615;51.506;7.678;2023-10-13T03:30:49;99500.94;;;17.57;100.00
37778;BME280;23615;51.506;7.678;2023-10-13T03:33:17;99499.81;;;17.58;100.00
37778;BME280;23615;51.506;7.678;2023-10-13T03:35:51;99499.06;;;17.52;100.00
37778;BME280;23615;51.506;7.678;2023-10-13T03:38:19;99503.41;;;17.48;100.00
37778;BME280;23615;51.506;7.678;2023-10-13T03:40:46;99485.31;;;17.54;100.00
37778;BME280;23615;51.506;7.678;2023-10-13T03:43:21;99489.09;;;17.53;100.00
37778;BME280;23615;51.506;7.678;2023-10-13T03:45:50;99488.75;;;17.59;100.00
37778;BME280;23615;51.506;7.678;2023-10-13T03:48:33;99489.84;;;17.58;100.00
37778;BME280;23615;51.506;7.678;2023-10-13T03:51:05;99486.34;;;17.58;100.00
37778;BME280;23615;51.506;7.678;2023-10-13T03:53:35;99483.34;;;17.65;100.00
37778;BME280;23615;51.506;7.678;2023-10-13T03:56:02;99483.94;;;17.56;100.00
37778;BME280;23615;51.506;7.678;2023-10-13T03:58:38;99475.06;;;17.51;100.00
37778;BME280;23615;51.506;7.678;2023-10-13T04:01:04;99466.75;;;17.47;100.00
37778;BME280;23615;51.506;7.678;2023-10-13T04:03:35;99467.03;;;17.46;100.00
37778;BME280;23615;51.506;7.678;2023-10-13T04:06:01;99455.97;;;17.47;100.00
37778;BME280;23615;51.506;7.678;2023-10-13T04:08:32;99448.19;;;17.41;100.00
37778;BME280;23615;51.506;7.678;2023-10-13T04:11:35;99445.25;;;17.37;100.00
37778;BME280;23615;51.506;7.678;2023-10-13T04:14:19;99439.06;;;17.37;100.00
37778;BME280;23615;51.506;7.678;2023-10-13T04:16:48;99433.88;;;17.40;100.00
37778;BME280;23615;51.506;7.678;2023-10-13T04:19:20;99431.53;;;17.34;100.00
37778;BME280;23615;51.506;7.678;2023-10-13T04:21:49;99427.47;;;17.36;100.00
37778;BME280;23615;51.506;7.678;2023-10-13T04:24:23;99425.03;;;17.35;100.00
37778;BME280;23615;51.506;7.678;2023-10-13T04:27:04;99422.63;;;17.33;100.00
37778;BME280;23615;51.506;7.678;2023-10-13T04:29:39;99418.28;;;17.37;100.00
37778;BME280;23615;51.506;7.678;2023-10-13T04:32:15;99417.75;;;17.35;100.00
37778;BME280;23615;51.506;7.678;2023-10-13T04:34:53;99408.34;;;17.33;100.00
37778;BME280;23615;51.506;7.678;2023-10-13T04:37:23;99400.53;;;17.31;100.00
37778;BME280;23615;51.506;7.678;2023-10-13T04:40:09;99398.59;;;17.37;100.00
37778;BME280;23615;51.506;7.678;2023-10-13T04:42:35;99395.09;;;17.36;100.00
37778;BME280;23615;51.506;7.678;2023-10-13T04:45:20;99387.34;;;17.30;100.00
37778;BME280;23615;51.506;7.678;2023-10-13T04:47:58;99390.78;;;17.35;100.00
37778;BME280;23615;51.506;7.678;2023-10-13T04:50:38;99390.25;;;17.38;100.00
37778;BME280;23615;51.506;7.678;2023-10-13T04:53:10;99383.44;;;17.41;100.00
37778;BME280;23615;51.506;7.678;2023-10-13T04:55:53;99390.78;;;17.35;100.00
37778;BME280;23615;51.506;7.678;2023-10-13T04:58:32;99382.19;;;17.33;100.00
37778;BME280;23615;51.506;7.678;2023-10-13T05:01:02;99377.03;;;17.37;100.00
37778;BME280;23615;51.506;7.678;2023-10-13T05:03:46;99365.34;;;17.46;100.00
37778;BME280;23615;51.506;7.678;2023-10-13T05:06:31;99364.00;;;17.44;100.00
37778;BME280;23615;51.506;7.678;2023-10-13T05:09:12;99357.75;;;17.48;100.00
37778;BME280;23615;51.506;7.678;2023-10-13T05:11:57;99355.91;;;17.44;100.00
37778;BME280;23615;51.506;7.678;2023-10-13T05:14:41;99354.88;;;17.40;100.00
37778;BME280;23615;51.506;7.678;2023-10-13T05:17:25;99347.44;;;17.55;100.00
37778;BME280;23615;51.506;7.678;2023-10-13T05:20:09;99339.84;;;17.57;100.00
37778;BME280;23615;51.506;7.678;2023-10-13T05:22:53;99352.19;;;17.69;100.00
37778;BME280;23615;51.506;7.678;2023-10-13T05:25:37;99351.06;;;17.75;100.00
37778;BME280;23615;51.506;7.678;2023-10-13T05:28:21;99349.66;;;17.77;100.00
37778;BME280;23615;51.506;7.678;2023-10-13T05:31:06;99341.56;;;17.77;100.00
37778;BME280;23615;51.506;7.678;2023-10-13T05:33:50;99352.94;;;17.74;100.00
37778;BME280;23615;51.506;7.678;2023-10-13T05:36:34;99342.19;;;17.69;100.00
37778;BME280;23615;51.506;7.678;2023-10-13T05:39:18;99339.75;;;17.73;100.00
37778;BME280;23615;51.506;7.678;2023-10-13T05:42:02;99331.66;;;17.73;100.00
37778;BME280;23615;51.506;7.678;2023-10-13T05:44:46;99328.97;;;17.68;100.00
37778;BME280;23615;51.506;7.678;2023-10-13T05:47:30;99340.63;;;17.87;100.00
37778;BME280;23615;51.506;7.678;2023-10-13T05:50:08;99328.22;;;17.86;100.00
37778;BME280;23615;51.506;7.678;2023-10-13T05:52:39;99325.63;;;17.81;100.00
37778;BME280;23615;51.506;7.678;2023-10-13T05:55:21;99325.97;;;17.74;100.00
37778;BME280;23615;51.506;7.678;2023-10-13T05:58:06;99326.41;;;17.81;100.00
37778;BME280;23615;51.506;7.678;2023-10-13T06:00:50;99327.25;;;17.77;100.00
37778;BME280;23615;51.506;7.678;2023-10-13T06:03:34;99330.56;;;17.74;100.00
37778;BME280;23615;51.506;7.678;2023-10-13T06:06:18;99341.81;;;17.81;100.00
37778;BME280;23615;51.506;7.678;2023-10-13T06:09:02;99337.03;;;17.97;100.00
37778;BME280;23615;51.506;7.678;2023-10-13T06:11:46;99350.91;;;17.85;100.00
37778;BME280;23615;51.506;7.678;2023-10-13T06:14:30;99347.59;;;17.93;100.00
37778;BME280;23615;51.506;7.678;2023-10-13T06:17:14;99348.16;;;17.90;100.00
37778;BME280;23615;51.506;7.678;2023-10-13T06:19:58;99341.44;;;17.87;100.00
37778;BME280;23615;51.506;7.678;2023-10-13T06:22:42;99334.69;;;17.90;100.00
37778;BME280;23615;51.506;7.678;2023-10-13T06:25:26;99350.34;;;17.88;100.00
37778;BME280;23615;51.506;7.678;2023-10-13T06:28:10;99357.59;;;17.92;100.00
37778;BME280;23615;51.506;7.678;2023-10-13T06:30:57;99351.69;;;17.90;100.00
37778;BME280;23615;51.506;7.678;2023-10-13T06:33:23;99351.50;;;17.82;100.00
37778;BME280;23615;51.506;7.678;2023-10-13T06:35:54;99353.41;;;17.81;100.00
37778;BME280;23615;51.506;7.678;2023-10-13T06:38:22;99353.34;;;17.86;100.00
37778;BME280;23615;51.506;7.678;2023-10-13T06:40:48;99352.03;;;17.84;100.00
37778;BME280;23615;51.506;7.678;2023-10-13T06:43:15;99343.94;;;17.84;100.00
37778;BME280;23615;51.506;7.678;2023-10-13T06:45:47;99340.72;;;17.82;100.00
37778;BME280;23615;51.506;7.678;2023-10-13T06:48:26;99332.03;;;17.85;100.00
37778;BME280;23615;51.506;7.678;2023-10-13T06:50:51;99322.63;;;17.82;100.00
37778;BME280;23615;51.506;7.678;2023-10-13T06:53:20;99318.53;;;17.85;100.00
37778;BME280;23615;51.506;7.678;2023-10-13T06:55:46;99302.34;;;17.85;100.00
37778;BME280;23615;51.506;7.678;2023-10-13T06:58:18;99303.94;;;17.86;100.00
37778;BME280;23615;51.506;7.678;2023-10-13T07:00:48;99307.25;;;17.83;100.00
37778;BME280;23615;51.506;7.678;2023-10-13T07:03:21;99297.97;;;17.89;100.00
37778;BME280;23615;51.506;7.678;2023-10-13T07:05:47;99294.47;;;17.88;100.00
37778;BME280;23615;51.506;7.678;2023-10-13T07:08:16;99288.66;;;18.00;100.00
37778;BME280;23615;51.506;7.678;2023-10-13T07:10:55;99290.47;;;18.05;100.00
37778;BME280;23615;51.506;7.678;2023-10-13T07:13:34;99289.63;;;18.09;100.00
37778;BME280;23615;51.506;7.678;2023-10-13T07:16:03;99291.72;;;18.12;100.00
37778;BME280;23615;51.506;7.678;2023-10-13T07:18:34;99281.25;;;18.11;100.00
37778;BME280;23615;51.506;7.678;2023-10-13T07:21:08;99292.63;;;18.08;100.00
37778;BME280;23615;51.506;7.678;2023-10-13T07:23:38;99293.34;;;18.13;100.00
37778;BME280;23615;51.506;7.678;2023-10-13T07:26:05;99300.28;;;18.19;100.00
37778;BME280;23615;51.506;7.678;2023-10-13T07:28:32;99299.19;;;18.20;100.00
37778;BME280;23615;51.506;7.678;2023-10-13T07:31:02;99290.50;;;18.23;100.00
37778;BME280;23615;51.506;7.678;2023-10-13T07:33:27;99298.03;;;18.26;100.00
37778;BME280;23615;51.506;7.678;2023-10-13T07:36:00;99294.25;;;18.27;100.00
37778;BME280;23615;51.506;7.678;2023-10-13T07:38:26;99292.06;;;18.29;100.00
37778;BME280;23615;51.506;7.678;2023-10-13T07:40:55;99294.00;;;18.43;100.00
37778;BME280;23615;51.506;7.678;2023-10-13T07:43:25;99284.16;;;18.52;100.00
37778;BME280;23615;51.506;7.678;2023-10-13T07:45:52;99283.91;;;18.48;100.00
37778;BME280;23615;51.506;7.678;2023-10-13T07:48:23;99284.38;;;18.55;100.00
37778;BME280;23615;51.506;7.678;2023-10-13T07:51:05;99281.31;;;18.62;100.00
37778;BME280;23615;51.506;7.678;2023-10-13T07:53:36;99279.72;;;18.61;100.00
37778;BME280;23615;51.506;7.678;2023-10-13T07:56:04;99277.53;;;18.63;100.00
37778;BME280;23615;51.506;7.678;2023-10-13T07:58:34;99274.25;;;18.66;100.00
37778;BME280;23615;51.506;7.678;2023-10-13T08:01:00;99272.53;;;18.70;100.00
37778;BME280;23615;51.506;7.678;2023-10-13T08:03:41;99262.13;;;18.63;100.00
37778;BME280;23615;51.506;7.678;2023-10-13T08:06:16;99259.25;;;18.74;100.00
37778;BME280;23615;51.506;7.678;2023-10-13T08:08:42;99260.63;;;18.71;100.00
37778;BME280;23615;51.506;7.678;2023-10-13T08:11:10;99264.25;;;18.80;100.00
37778;BME280;23615;51.506;7.678;2023-10-13T08:13:55;99250.34;;;18.87;100.00
37778;BME280;23615;51.506;7.678;2023-10-13T08:16:36;99258.28;;;18.97;100.00
37778;BME280;23615;51.506;7.678;2023-10-13T08:19:19;99254.19;;;18.99;100.00
37778;BME280;23615;51.506;7.678;2023-10-13T08:21:46;99243.78;;;18.93;100.00
37778;BME280;23615;51.506;7.678;2023-10-13T08:24:17;99245.69;;;18.92;100.00
37778;BME280;23615;51.506;7.678;2023-10-13T08:26:51;99245.06;;;18.95;100.00
37778;BME280;23615;51.506;7.678;2023-10-13T08:29:43;99244.72;;;19.02;100.00
37778;BME280;23615;51.506;7.678;2023-10-13T08:34:59;99236.97;;;18.95;100.00
37778;BME280;23615;51.506;7.678;2023-10-13T08:37:29;99225.66;;;19.07;100.00
37778;BME280;23615;51.506;7.678;2023-10-13T08:39:59;99228.09;;;19.09;100.00
37778;BME280;23615;51.506;7.678;2023-10-13T08:42:38;99226.38;;;19.13;100.00
37778;BME280;23615;51.506;7.678;2023-10-13T08:45:10;99216.47;;;19.08;100.00
37778;BME280;23615;51.506;7.678;2023-10-13T08:47:52;99216.56;;;19.17;100.00
37778;BME280;23615;51.506;7.678;2023-10-13T08:50:34;99214.88;;;19.21;100.00
37778;BME280;23615;51.506;7.678;2023-10-13T08:53:14;99220.78;;;19.23;100.00
37778;BME280;23615;51.506;7.678;2023-10-13T08:56:03;99221.38;;;19.20;100.00
37778;BME280;23615;51.506;7.678;2023-10-13T09:01:24;99223.78;;;19.35;100.00
37778;BME280;23615;51.506;7.678;2023-10-13T09:04:12;99216.19;;;19.37;100.00
37778;BME280;23615;51.506;7.678;2023-10-13T09:09:32;99191.13;;;19.45;100.00
37778;BME280;23615;51.506;7.678;2023-10-13T09:12:16;99195.25;;;19.56;100.00
37778;BME280;23615;51.506;7.678;2023-10-13T09:14:58;99198.34;;;19.63;100.00
37778;BME280;23615;51.506;7.678;2023-10-13T09:17:28;99186.69;;;19.76;100.00
37778;BME280;23615;51.506;7.678;2023-10-13T09:20:07;99181.78;;;19.78;100.00
37778;BME280;23615;51.506;7.678;2023-10-13T09:22:54;99170.13;;;19.92;100.00
37778;BME280;23615;51.506;7.678;2023-10-13T09:25:34;99164.28;;;19.98;100.00
37778;BME280;23615;51.506;7.678;2023-10-13T09:28:11;99171.84;;;20.10;100.00
37778;BME280;23615;51.506;7.678;2023-10-13T09:30:44;99146.84;;;20.13;100.00
37778;BME280;23615;51.506;7.678;2023-10-13T09:33:10;99153.00;;;20.05;100.00
37778;BME280;23615;51.506;7.678;2023-10-13T09:35:43;99147.34;;;20.15;100.00
37778;BME280;23615;51.506;7.678;2023-10-13T09:38:14;99149.94;;;20.20;100.00
37778;BME280;23615;51.506;7.678;2023-10-13T09:40:40;99156.53;;;20.28;99.06
37778;BME280;23615;51.506;7.678;2023-10-13T09:43:11;99146.66;;;20.32;98.86
37778;BME280;23615;51.506;7.678;2023-10-13T09:45:47;99139.25;;;20.37;98.16
37778;BME280;23615;51.506;7.678;2023-10-13T09:48:36;99121.25;;;20.41;95.90
37778;BME280;23615;51.506;7.678;2023-10-13T09:51:03;99118.44;;;20.46;95.33
37778;BME280;23615;51.506;7.678;2023-10-13T09:53:34;99135.94;;;20.49;95.94
37778;BME280;23615;51.506;7.678;2023-10-13T09:56:18;99127.22;;;20.52;95.20
37778;BME280;23615;51.506;7.678;2023-10-13T09:59:08;99134.16;;;20.67;95.33
37778;BME280;23615;51.506;7.678;2023-10-13T10:01:45;99126.16;;;20.62;93.74
37778;BME280;23615;51.506;7.678;2023-10-13T10:04:22;99113.63;;;20.74;94.14
37778;BME280;23615;51.506;7.678;2023-10-13T10:06:56;99132.59;;;20.74;92.97
37778;BME280;23615;51.506;7.678;2023-10-13T10:09:27;99128.94;;;20.79;91.70
37778;BME280;23615;51.506;7.678;2023-10-13T10:17:45;99105.59;;;21.00;89.78
37778;BME280;23615;51.506;7.678;2023-10-13T10:20:12;99118.84;;;21.10;87.89
37778;BME280;23615;51.506;7.678;2023-10-13T10:22:41;99112.16;;;21.16;87.90
37778;BME280;23615;51.506;7.678;2023-10-13T10:25:13;99101.31;;;21.16;87.96
37778;BME280;23615;51.506;7.678;2023-10-13T10:28:02;99113.00;;;21.25;87.50
37778;BME280;23615;51.506;7.678;2023-10-13T10:30:31;99103.28;;;21.33;87.84
37778;BME280;23615;51.506;7.678;2023-10-13T10:32:59;99109.38;;;21.39;86.45
37778;BME280;23615;51.506;7.678;2023-10-13T10:35:25;99109.72;;;21.54;86.75
37778;BME280;23615;51.506;7.678;2023-10-13T10:38:08;99104.91;;;21.60;85.31
37778;BME280;23615;51.506;7.678;2023-10-13T10:40:49;99096.75;;;21.60;85.79
37778;BME280;23615;51.506;7.678;2023-10-13T10:43:17;99100.59;;;21.67;85.61
37778;BME280;23615;51.506;7.678;2023-10-13T10:45:48;99105.41;;;21.62;85.16
37778;BME280;23615;51.506;7.678;2023-10-13T10:48:16;99102.38;;;21.72;84.39
37778;BME280;23615;51.506;7.678;2023-10-13T10:50:54;99107.50;;;21.82;85.15
37778;BME280;23615;51.506;7.678;2023-10-13T10:53:21;99115.78;;;21.94;84.17
37778;BME280;23615;51.506;7.678;2023-10-13T10:55:48;99110.34;;;21.94;84.50
37778;BME280;23615;51.506;7.678;2023-10-13T10:58:13;99099.84;;;22.01;84.56
37778;BME280;23615;51.506;7.678;2023-10-13T11:01:06;99094.06;;;22.12;84.89
37778;BME280;23615;51.506;7.678;2023-10-13T11:04:02;99081.72;;;22.23;82.93
37778;BME280;23615;51.506;7.678;2023-10-13T11:06:45;99079.34;;;22.30;83.69
37778;BME280;23615;51.506;7.678;2023-10-13T11:09:11;99063.03;;;22.30;82.01
37778;BME280;23615;51.506;7.678;2023-10-13T11:14:32;99067.31;;;22.39;82.68
37778;BME280;23615;51.506;7.678;2023-10-13T11:16:58;99050.63;;;22.50;83.08
37778;BME280;23615;51.506;7.678;2023-10-13T11:19:37;99051.91;;;22.52;82.74
37778;BME280;23615;51.506;7.678;2023-10-13T11:22:13;99026.44;;;22.65;82.03
37778;BME280;23615;51.506;7.678;2023-10-13T11:25:05;99046.84;;;22.71;82.38
37778;BME280;23615;51.506;7.678;2023-10-13T11:27:40;99032.31;;;22.67;81.86
37778;BME280;23615;51.506;7.678;2023-10-13T11:30:16;99046.25;;;22.66;82.06
37778;BME280;23615;51.506;7.678;2023-10-13T11:32:45;99031.97;;;22.69;82.23
37778;BME280;23615;51.506;7.678;2023-10-13T11:35:12;99022.84;;;22.73;82.95
37778;BME280;23615;51.506;7.678;2023-10-13T11:37:47;99025.88;;;22.81;82.03
37778;BME280;23615;51.506;7.678;2023-10-13T11:40:22;99025.72;;;22.77;82.40
37778;BME280;23615;51.506;7.678;2023-10-13T11:43:06;99023.38;;;22.67;81.78
37778;BME280;23615;51.506;7.678;2023-10-13T11:45:32;99023.50;;;22.70;82.62
37778;BME280;23615;51.506;7.678;2023-10-13T11:47:57;99016.59;;;22.82;81.91
37778;BME280;23615;51.506;7.678;2023-10-13T11:50:26;99005.25;;;22.71;80.56
37778;BME280;23615;51.506;7.678;2023-10-13T11:52:59;98992.78;;;22.70;81.75
37778;BME280;23615;51.506;7.678;2023-10-13T11:55:25;98988.31;;;22.74;80.35
37778;BME280;23615;51.506;7.678;2023-10-13T11:57:51;98988.00;;;22.75;81.65
37778;BME280;23615;51.506;7.678;2023-10-13T12:00:16;98984.78;;;22.73;81.28
37778;BME280;23615;51.506;7.678;2023-10-13T12:03:02;98980.13;;;22.74;81.61
37778;BME280;23615;51.506;7.678;2023-10-13T12:05:53;98976.00;;;22.68;82.37
37778;BME280;23615;51.506;7.678;2023-10-13T12:08:37;98965.91;;;22.68;82.73
37778;BME280;23615;51.506;7.678;2023-10-13T12:11:14;98980.13;;;22.74;82.21
37778;BME280;23615;51.506;7.678;2023-10-13T12:13:59;98962.69;;;22.84;81.74
37778;BME280;23615;51.506;7.678;2023-10-13T12:16:36;98952.38;;;22.89;81.71
37778;BME280;23615;51.506;7.678;2023-10-13T12:19:01;98957.66;;;22.94;82.03
37778;BME280;23615;51.506;7.678;2023-10-13T12:21:27;98952.59;;;23.05;82.09
37778;BME280;23615;51.506;7.678;2023-10-13T12:23:52;98941.50;;;23.10;82.56
37778;BME280;23615;51.506;7.678;2023-10-13T12:26:19;98942.56;;;23.18;83.08
37778;BME280;23615;51.506;7.678;2023-10-13T12:28:48;98946.75;;;23.15;82.27
37778;BME280;23615;51.506;7.678;2023-10-13T12:31:30;98946.56;;;23.20;83.65
37778;BME280;23615;51.506;7.678;2023-10-13T12:33:57;98945.63;;;23.16;83.76
37778;BME280;23615;51.506;7.678;2023-10-13T12:36:31;98947.47;;;23.24;82.83
37778;BME280;23615;51.506;7.678;2023-10-13T12:39:06;98936.78;;;23.19;84.33
37778;BME280;23615;51.506;7.678;2023-10-13T12:41:31;98946.22;;;23.22;83.93
37778;BME280;23615;51.506;7.678;2023-10-13T12:44:15;98942.28;;;23.31;82.28
37778;BME280;23615;51.506;7.678;2023-10-13T12:47:00;98938.38;;;23.20;82.46
37778;BME280;23615;51.506;7.678;2023-10-13T12:49:58;98933.66;;;23.29;80.96
37778;BME280;23615;51.506;7.678;2023-10-13T12:52:24;98929.91;;;23.22;79.96
37778;BME280;23615;51.506;7.678;2023-10-13T12:54:54;98922.72;;;23.17;79.87
37778;BME280;23615;51.506;7.678;2023-10-13T12:57:22;98924.66;;;23.17;80.63
37778;BME280;23615;51.506;7.678;2023-10-13T12:59:50;98902.53;;;23.18;79.87
37778;BME280;23615;51.506;7.678;2023-10-13T13:02:19;98904.72;;;23.04;79.34
37778;BME280;23615;51.506;7.678;2023-10-13T13:04:45;98902.44;;;22.94;80.26
37778;BME280;23615;51.506;7.678;2023-10-13T13:07:13;98895.59;;;22.88;79.70
37778;BME280;23615;51.506;7.678;2023-10-13T13:09:40;98885.09;;;22.77;79.73
37778;BME280;23615;51.506;7.678;2023-10-13T13:12:05;98901.78;;;22.67;79.87
37778;BME280;23615;51.506;7.678;2023-10-13T13:14:31;98914.56;;;22.75;80.44
37778;BME280;23615;51.506;7.678;2023-10-13T13:17:00;98899.84;;;22.68;80.13
37778;BME280;23615;51.506;7.678;2023-10-13T13:19:35;98902.94;;;22.66;80.87
37778;BME280;23615;51.506;7.678;2023-10-13T13:22:08;98899.38;;;22.74;79.83
37778;BME280;23615;51.506;7.678;2023-10-13T13:24:41;98912.28;;;22.77;80.25
37778;BME280;23615;51.506;7.678;2023-10-13T13:27:11;98905.41;;;22.80;80.55
37778;BME280;23615;51.506;7.678;2023-10-13T13:29:41;98901.59;;;22.72;80.56
37778;BME280;23615;51.506;7.678;2023-10-13T13:32:07;98913.91;;;22.79;80.57
37778;BME280;23615;51.506;7.678;2023-10-13T13:34:43;98904.00;;;22.74;79.31
37778;BME280;23615;51.506;7.678;2023-10-13T13:37:08;98912.34;;;22.69;80.07
37778;BME280;23615;51.506;7.678;2023-10-13T13:39:37;98900.81;;;22.72;81.08
37778;BME280;23615;51.506;7.678;2023-10-13T13:42:08;98900.28;;;22.79;79.58